Time;durP1;ratioP1;P1;durP2;ratioP2;P2;SDS_P1;SDS_P2;PMS_P1;PMS_P2;Temp;Humidity;BMP_temperature;BMP_pressure;BME280_temperature;BME280_humidity;BME280_pressure;Samples;Min_cycle;Max_cycle;Signal;HPM_P1;HPM_P2
2022/08/19 00:01:45;;;;;;;9.65;4.75;;;15.80;99.90;;;;;;5084831;28;20036;-75
2022/08/19 00:04:13;;;;;;;10.45;5.63;;;15.80;99.90;;;;;;5081764;28;20102;-74
2022/08/19 00:06:41;;;;;;;11.80;5.43;;;15.70;99.90;;;;;;5073464;28;20477;-76
2022/08/19 00:09:10;;;;;;;8.90;5.05;;;15.70;99.90;;;;;;5076418;28;20030;-75
2022/08/19 00:11:37;;;;;;;9.57;5.13;;;15.80;99.90;;;;;;5066711;28;20036;-75
2022/08/19 00:14:08;;;;;;;8.38;4.93;;;15.70;99.90;;;;;;5061954;28;20063;-76
2022/08/19 00:16:34;;;;;;;12.20;6.10;;;15.70;99.90;;;;;;5065628;28;20381;-73
2022/08/19 00:19:00;;;;;;;7.18;4.70;;;15.60;99.90;;;;;;5082488;28;20056;-74
2022/08/19 00:21:26;;;;;;;6.70;4.93;;;15.60;99.90;;;;;;5067254;28;20054;-75
2022/08/19 00:23:53;;;;;;;9.98;5.30;;;15.60;99.90;;;;;;5082351;28;20458;-74
2022/08/19 00:26:20;;;;;;;8.07;5.30;;;15.50;99.90;;;;;;5082819;28;20065;-75
2022/08/19 00:28:46;;;;;;;8.57;5.38;;;15.50;99.90;;;;;;5083136;28;20096;-75
2022/08/19 00:31:12;;;;;;;7.13;5.30;;;15.50;99.90;;;;;;5064110;28;20075;-74
2022/08/19 00:33:38;;;;;;;10.60;5.38;;;15.40;99.90;;;;;;5077809;28;20150;-74
2022/08/19 00:36:07;;;;;;;14.85;5.88;;;15.40;99.90;;;;;;5081861;28;20039;-75
2022/08/19 00:38:33;;;;;;;9.68;5.43;;;15.40;99.90;;;;;;5077268;28;20052;-73
2022/08/19 00:40:59;;;;;;;10.73;4.82;;;15.40;99.90;;;;;;5080845;28;20040;-74
2022/08/19 00:43:26;;;;;;;9.90;4.95;;;15.40;99.90;;;;;;5079134;28;20105;-74
2022/08/19 00:45:53;;;;;;;11.57;5.18;;;15.40;99.90;;;;;;5081219;28;20044;-75
2022/08/19 00:48:20;;;;;;;7.95;4.82;;;15.40;99.90;;;;;;5079551;28;20051;-76
2022/08/19 00:50:48;;;;;;;11.30;5.47;;;15.40;99.90;;;;;;5065184;28;20824;-76
2022/08/19 00:53:18;;;;;;;8.40;4.90;;;15.30;99.90;;;;;;5061851;28;20055;-75
2022/08/19 00:55:47;;;;;;;9.43;4.60;;;15.30;99.90;;;;;;5069598;28;20039;-75
2022/08/19 00:58:19;;;;;;;9.18;4.93;;;15.20;99.90;;;;;;5067014;28;20059;-74
2022/08/19 01:00:46;;;;;;;8.85;5.45;;;15.20;99.90;;;;;;5068110;28;20043;-73
2022/08/19 01:03:15;;;;;;;9.50;5.53;;;15.20;99.90;;;;;;5083720;28;20951;-74
2022/08/19 01:05:43;;;;;;;9.25;5.45;;;15.20;99.90;;;;;;5070174;28;20051;-75
2022/08/19 01:08:10;;;;;;;12.38;5.75;;;15.10;99.90;;;;;;5081905;28;20118;-75
2022/08/19 01:10:56;;;;;;;9.60;5.60;;;15.10;99.90;;;;;;5061976;28;20059;-75
2022/08/19 01:13:27;;;;;;;9.77;6.43;;;15.10;99.90;;;;;;5082900;28;20036;-76
2022/08/19 01:16:00;;;;;;;9.32;5.95;;;15.10;99.90;;;;;;5063805;28;20044;-75
2022/08/19 01:18:27;;;;;;;9.38;5.78;;;15.00;99.90;;;;;;5077752;28;20147;-75
2022/08/19 01:20:57;;;;;;;11.63;5.97;;;15.00;99.90;;;;;;5083981;28;20051;-75
2022/08/19 01:23:42;;;;;;;8.80;5.93;;;15.00;99.90;;;;;;5081564;28;20067;-76
2022/08/19 01:26:13;;;;;;;12.85;6.03;;;14.90;99.90;;;;;;5082045;27;20078;-76
2022/08/19 01:28:40;;;;;;;9.85;5.85;;;14.90;99.90;;;;;;5064321;28;20035;-75
2022/08/19 01:31:11;;;;;;;8.60;5.88;;;14.90;99.90;;;;;;5059409;28;20051;-75
2022/08/19 01:33:37;;;;;;;10.13;5.82;;;14.90;99.90;;;;;;5078551;28;20034;-75
2022/08/19 01:36:21;;;;;;;9.63;5.75;;;14.90;99.90;;;;;;5076952;28;20050;-75
2022/08/19 01:38:48;;;;;;;9.85;6.07;;;14.90;99.90;;;;;;5064076;28;20471;-75
2022/08/19 01:41:14;;;;;;;9.13;6.00;;;14.90;99.90;;;;;;5059313;28;20055;-75
2022/08/19 01:43:40;;;;;;;6.95;5.95;;;14.80;99.90;;;;;;5063678;28;20454;-75
2022/08/19 01:46:06;;;;;;;8.65;5.93;;;14.80;99.90;;;;;;5076211;28;20044;-75
2022/08/19 01:48:38;;;;;;;12.25;6.57;;;14.90;99.90;;;;;;5073831;28;20063;-74
2022/08/19 01:51:04;;;;;;;11.38;6.88;;;14.90;99.90;;;;;;5079089;28;20050;-75
2022/08/19 01:53:30;;;;;;;11.93;6.88;;;14.90;99.90;;;;;;5079652;28;20050;-75
2022/08/19 01:55:55;;;;;;;10.27;6.70;;;14.90;99.90;;;;;;5081488;28;20372;-75
2022/08/19 01:58:29;;;;;;;8.60;6.50;;;14.90;99.90;;;;;;5061420;28;21863;-76
2022/08/19 02:00:54;;;;;;;12.27;6.47;;;15.00;99.90;;;;;;5064030;28;20051;-75
2022/08/19 02:03:20;;;;;;;9.70;6.25;;;15.00;99.90;;;;;;5084026;28;20062;-75
2022/08/19 02:05:46;;;;;;;9.25;6.68;;;15.00;99.90;;;;;;5083157;28;20139;-74
2022/08/19 02:08:12;;;;;;;9.73;6.25;;;15.10;99.90;;;;;;5065261;28;20392;-75
2022/08/19 02:10:40;;;;;;;13.20;6.78;;;15.00;99.90;;;;;;5078395;28;20388;-74
2022/08/19 02:13:06;;;;;;;9.55;7.10;;;15.10;99.90;;;;;;5067009;28;20036;-76
2022/08/19 02:15:32;;;;;;;11.55;7.80;;;15.10;99.90;;;;;;5083407;28;20173;-76
2022/08/19 02:17:58;;;;;;;12.05;7.68;;;15.10;99.90;;;;;;5082923;28;20052;-74
2022/08/19 02:20:24;;;;;;;11.38;7.60;;;15.10;99.90;;;;;;5085388;28;20131;-74
2022/08/19 02:22:50;;;;;;;11.55;7.90;;;15.10;99.90;;;;;;5069783;28;20043;-73
2022/08/19 02:25:15;;;;;;;9.65;7.25;;;15.10;99.90;;;;;;5069055;28;20051;-73
2022/08/19 02:27:42;;;;;;;12.77;7.85;;;15.10;99.90;;;;;;5084761;28;20526;-75
2022/08/19 02:30:12;;;;;;;11.75;7.88;;;15.10;99.90;;;;;;5063428;28;20157;-75
2022/08/19 02:32:38;;;;;;;10.85;7.65;;;15.00;99.90;;;;;;5080490;28;20035;-74
2022/08/19 02:35:05;;;;;;;12.27;7.93;;;15.10;99.90;;;;;;5081130;28;20123;-74
2022/08/19 02:40:14;;;;;;;13.07;7.65;;;15.10;99.90;;;;;;5075479;28;20043;-75
2022/08/19 02:42:40;;;;;;;8.55;7.07;;;15.00;99.90;;;;;;5067302;28;20092;-75
2022/08/19 02:45:07;;;;;;;9.60;6.90;;;15.00;99.90;;;;;;5080143;28;20082;-75
2022/08/19 02:47:33;;;;;;;10.38;6.97;;;15.00;99.90;;;;;;5084140;28;20048;-75
2022/08/19 02:50:01;;;;;;;7.68;6.93;;;15.00;99.90;;;;;;5064096;28;20043;-75
2022/08/19 02:52:28;;;;;;;9.93;6.82;;;15.00;99.90;;;;;;5081462;28;20134;-74
2022/08/19 02:54:57;;;;;;;10.98;7.30;;;15.00;99.90;;;;;;5074412;28;20047;-74
2022/08/19 02:57:23;;;;;;;13.80;7.70;;;15.00;99.90;;;;;;5078472;28;20108;-74
2022/08/19 02:59:49;;;;;;;13.73;7.35;;;15.00;99.90;;;;;;5083079;28;20036;-75
2022/08/19 03:02:15;;;;;;;11.02;7.05;;;15.00;99.90;;;;;;5079312;28;20055;-75
2022/08/19 03:04:41;;;;;;;12.95;7.47;;;15.00;99.90;;;;;;5081660;28;20509;-74
2022/08/19 03:07:08;;;;;;;10.32;7.30;;;15.00;99.90;;;;;;5074662;28;20061;-75
2022/08/19 03:09:36;;;;;;;11.52;7.30;;;15.00;99.90;;;;;;5081392;28;20040;-75
2022/08/19 03:12:04;;;;;;;8.70;7.10;;;14.90;99.90;;;;;;5075873;28;20540;-75
2022/08/19 03:14:34;;;;;;;15.85;7.53;;;14.90;99.90;;;;;;5079425;28;20047;-74
2022/08/19 03:17:00;;;;;;;7.57;6.80;;;14.90;99.90;;;;;;5080893;28;20359;-74
2022/08/19 03:19:27;;;;;;;12.75;7.40;;;14.80;99.90;;;;;;5088034;28;20052;-75
2022/08/19 03:21:53;;;;;;;11.02;8.20;;;14.70;99.90;;;;;;5084809;28;20371;-74
2022/08/19 03:24:19;;;;;;;13.68;9.18;;;14.80;99.90;;;;;;5068863;28;20036;-75
2022/08/19 03:26:52;;;;;;;12.05;8.55;;;14.80;99.90;;;;;;5086098;28;20065;-75
2022/08/19 03:29:19;;;;;;;10.20;8.23;;;14.80;99.90;;;;;;5087083;28;20039;-75
2022/08/19 03:31:45;;;;;;;12.48;9.55;;;14.70;99.90;;;;;;5086980;28;20035;-75
2022/08/19 03:34:17;;;;;;;17.00;9.90;;;14.70;99.90;;;;;;5079424;28;20430;-76
2022/08/19 03:36:44;;;;;;;13.55;9.70;;;14.70;99.90;;;;;;5066552;28;20352;-75
2022/08/19 03:39:10;;;;;;;11.48;9.55;;;14.80;99.90;;;;;;5082548;28;20051;-76
2022/08/19 03:41:38;;;;;;;11.93;9.55;;;14.70;99.90;;;;;;5085155;28;20032;-74
2022/08/19 03:44:08;;;;;;;15.02;10.43;;;14.70;99.90;;;;;;5083918;28;20048;-73
2022/08/19 03:46:34;;;;;;;12.18;9.88;;;14.70;99.90;;;;;;5065816;28;20055;-73
2022/08/19 03:49:03;;;;;;;14.40;10.52;;;14.70;99.90;;;;;;5082557;28;20049;-75
2022/08/19 03:51:38;;;;;;;12.82;10.55;;;14.80;99.90;;;;;;5065826;28;20044;-75
2022/08/19 03:54:07;;;;;;;14.32;9.77;;;14.60;99.90;;;;;;5060596;28;20031;-74
2022/08/19 03:56:37;;;;;;;13.38;10.63;;;14.70;99.90;;;;;;5082583;28;20127;-75
2022/08/19 03:59:06;;;;;;;15.38;10.90;;;14.60;99.90;;;;;;5084257;28;20036;-75
2022/08/19 04:01:31;;;;;;;15.60;10.80;;;14.60;99.90;;;;;;5065145;28;20047;-75
2022/08/19 04:03:59;;;;;;;14.45;10.90;;;14.60;99.90;;;;;;5062855;28;20053;-76
2022/08/19 04:06:30;;;;;;;13.77;11.00;;;14.60;99.90;;;;;;5071470;28;20445;-75
2022/08/19 04:09:01;;;;;;;15.60;11.30;;;14.60;99.90;;;;;;5085284;28;20356;-76
2022/08/19 04:11:30;;;;;;;12.85;9.88;;;14.50;99.90;;;;;;5081252;28;20039;-76
2022/08/19 04:13:56;;;;;;;14.18;10.43;;;14.50;99.90;;;;;;5068806;28;20335;-76
2022/08/19 04:16:28;;;;;;;14.77;10.35;;;14.50;99.90;;;;;;5083554;28;20048;-76
2022/08/19 04:18:55;;;;;;;14.38;9.52;;;14.50;99.90;;;;;;5067853;28;20134;-76
2022/08/19 04:21:27;;;;;;;12.55;9.63;;;14.50;99.90;;;;;;5047828;28;20052;-75
2022/08/19 04:23:53;;;;;;;15.05;10.00;;;14.60;99.90;;;;;;5080870;28;20071;-75
2022/08/19 04:26:26;;;;;;;13.13;9.93;;;14.60;99.90;;;;;;5074804;28;20071;-75
2022/08/19 04:28:54;;;;;;;15.55;9.93;;;14.50;99.90;;;;;;5082260;28;20096;-75
2022/08/19 04:31:25;;;;;;;16.55;10.02;;;14.50;99.90;;;;;;5062006;28;20043;-75
2022/08/19 04:33:52;;;;;;;13.00;10.57;;;14.50;99.90;;;;;;5077945;28;20050;-75
2022/08/19 04:36:23;;;;;;;14.57;10.35;;;14.50;99.90;;;;;;5057392;28;20055;-75
2022/08/19 04:38:52;;;;;;;13.20;10.07;;;14.50;99.90;;;;;;5085550;28;20045;-75
2022/08/19 04:44:02;;;;;;;16.38;11.35;;;14.50;99.90;;;;;;5081032;28;20036;-74
2022/08/19 04:46:30;;;;;;;17.35;11.95;;;14.50;99.90;;;;;;5080791;28;20043;-75
2022/08/19 04:48:56;;;;;;;19.25;10.98;;;14.50;99.90;;;;;;5079377;28;20040;-75
2022/08/19 04:51:22;;;;;;;20.33;12.07;;;14.50;99.90;;;;;;5079983;28;20107;-76
2022/08/19 04:53:48;;;;;;;16.95;12.20;;;14.60;99.90;;;;;;5062368;28;20464;-75
2022/08/19 04:56:17;;;;;;;21.13;13.70;;;14.60;99.90;;;;;;5065472;28;20028;-75
2022/08/19 04:58:44;;;;;;;16.85;12.35;;;14.70;99.90;;;;;;5076367;28;20032;-75
2022/08/19 05:01:29;;;;;;;19.15;12.32;;;14.70;99.90;;;;;;5062188;28;20085;-75
2022/08/19 05:03:57;;;;;;;21.08;13.40;;;14.80;99.90;;;;;;5067792;28;20545;-75
2022/08/19 05:06:25;;;;;;;17.00;12.50;;;14.80;99.90;;;;;;5070468;28;20502;-73
2022/08/19 05:08:50;;;;;;;21.15;12.27;;;14.80;99.90;;;;;;5094592;28;20120;-74
2022/08/19 05:11:31;;;;;;;19.67;12.90;;;14.80;99.90;;;;;;5078138;28;20051;-74
2022/08/19 05:13:57;;;;;;;16.17;12.32;;;14.90;99.90;;;;;;5060560;28;20032;-74
2022/08/19 05:16:24;;;;;;;14.48;12.07;;;15.00;99.90;;;;;;5057015;28;20401;-74
2022/08/19 05:24:23;;;;;;;15.77;10.82;;;15.30;99.90;;;;;;5077164;28;20051;-74
2022/08/19 05:26:51;;;;;;;16.95;11.02;;;15.30;99.90;;;;;;5075964;28;20040;-74
2022/08/19 05:29:19;;;;;;;17.73;11.18;;;15.40;99.90;;;;;;5058036;28;20058;-74
2022/08/19 05:31:49;;;;;;;11.32;9.60;;;15.40;99.90;;;;;;5088175;28;20107;-75
2022/08/19 05:34:15;;;;;;;12.45;9.68;;;15.40;99.90;;;;;;5079020;28;20155;-75
2022/08/19 05:36:44;;;;;;;13.57;9.70;;;15.50;99.90;;;;;;5074601;28;20186;-76
2022/08/19 05:39:15;;;;;;;10.85;9.27;;;15.50;99.90;;;;;;5059431;28;20040;-75
2022/08/19 05:41:54;;;;;;;13.40;9.82;;;15.50;99.90;;;;;;5059950;28;21026;-75
2022/08/19 05:44:21;;;;;;;14.00;10.40;;;15.60;99.90;;;;;;5059129;28;20044;-75
2022/08/19 05:46:47;;;;;;;18.50;12.10;;;15.60;99.90;;;;;;5057211;28;20541;-74
2022/08/19 05:49:13;;;;;;;15.23;11.13;;;15.70;99.90;;;;;;5090125;28;20150;-74
2022/08/19 05:51:39;;;;;;;14.35;10.80;;;15.70;99.90;;;;;;5073521;28;20040;-75
2022/08/19 05:54:05;;;;;;;16.23;11.77;;;15.80;99.90;;;;;;5079146;28;20040;-74
2022/08/19 05:56:37;;;;;;;18.05;12.00;;;15.90;99.90;;;;;;5082912;28;20059;-74
2022/08/19 05:59:08;;;;;;;20.00;13.82;;;15.90;99.90;;;;;;5067086;28;20634;-75
2022/08/19 06:01:34;;;;;;;18.70;13.68;;;15.90;99.90;;;;;;5053253;28;20130;-75
2022/08/19 06:04:00;;;;;;;21.08;13.63;;;15.90;99.90;;;;;;5077956;28;20043;-76
2022/08/19 06:06:25;;;;;;;19.83;12.82;;;16.00;99.90;;;;;;5083956;28;20399;-75
2022/08/19 06:08:51;;;;;;;21.48;13.65;;;16.00;99.90;;;;;;5066678;28;20041;-76
2022/08/19 06:11:20;;;;;;;24.60;14.27;;;15.90;99.90;;;;;;5046016;28;20048;-76
2022/08/19 06:13:49;;;;;;;23.00;13.50;;;16.00;99.90;;;;;;5072060;28;20060;-76
2022/08/19 06:16:21;;;;;;;18.00;12.80;;;16.10;99.90;;;;;;5073383;28;20070;-76
2022/08/19 06:18:51;;;;;;;20.40;13.13;;;16.10;99.90;;;;;;5057558;28;20044;-75
2022/08/19 06:21:18;;;;;;;21.30;13.95;;;16.10;99.90;;;;;;5076904;28;20460;-77
2022/08/19 06:23:44;;;;;;;19.50;13.10;;;16.20;99.90;;;;;;5088448;28;20056;-75
2022/08/19 06:26:15;;;;;;;19.48;13.60;;;16.30;99.90;;;;;;5083388;28;20052;-75
2022/08/19 06:28:44;;;;;;;20.42;13.15;;;16.30;99.90;;;;;;5064025;28;20048;-73
2022/08/19 06:31:11;;;;;;;23.33;13.80;;;16.40;99.90;;;;;;5077597;28;21320;-74
2022/08/19 06:33:37;;;;;;;20.50;13.57;;;16.50;99.90;;;;;;5079945;28;20506;-75
2022/08/19 06:36:03;;;;;;;20.45;13.70;;;16.50;99.90;;;;;;5062010;28;20443;-75
2022/08/19 06:38:28;;;;;;;21.00;13.93;;;16.60;99.90;;;;;;5079062;28;20097;-75
2022/08/19 06:41:04;;;;;;;22.35;13.70;;;16.70;99.90;;;;;;5079442;28;20071;-75
2022/08/19 06:43:30;;;;;;;22.50;13.82;;;16.80;99.90;;;;;;5064265;28;20483;-75
2022/08/19 06:45:56;;;;;;;19.30;13.40;;;17.00;99.90;;;;;;5078902;28;20072;-75
2022/08/19 06:48:22;;;;;;;22.17;12.50;;;17.00;99.90;;;;;;5062383;28;20040;-77
2022/08/19 06:50:49;;;;;;;17.88;13.02;;;17.10;99.90;;;;;;5078099;28;20036;-77
2022/08/19 06:53:15;;;;;;;17.40;12.32;;;17.30;99.90;;;;;;5063890;28;20036;-77
2022/08/19 06:55:41;;;;;;;21.80;12.18;;;17.40;99.90;;;;;;5081647;28;20037;-76
2022/08/19 06:58:06;;;;;;;20.77;11.68;;;17.50;99.90;;;;;;5058559;28;20502;-75
2022/08/19 07:00:33;;;;;;;19.25;11.48;;;17.60;99.90;;;;;;5061880;28;20376;-75
2022/08/19 07:03:00;;;;;;;20.60;11.75;;;17.70;99.90;;;;;;5054688;28;20082;-75
2022/08/19 07:05:26;;;;;;;15.68;10.80;;;17.80;99.90;;;;;;5076010;28;20054;-76
2022/08/19 07:07:51;;;;;;;21.77;10.75;;;18.00;99.90;;;;;;5057536;28;20127;-74
2022/08/19 07:10:18;;;;;;;18.27;11.20;;;18.10;99.90;;;;;;5053003;28;20080;-75
2022/08/19 07:12:44;;;;;;;21.45;12.02;;;18.10;99.90;;;;;;5075352;28;20078;-76
2022/08/19 07:15:10;;;;;;;14.73;10.65;;;18.30;99.90;;;;;;5077008;28;20174;-76
2022/08/19 07:17:39;;;;;;;20.02;11.88;;;18.30;99.90;;;;;;5073477;28;20552;-76
2022/08/19 07:20:07;;;;;;;15.95;10.82;;;18.50;99.90;;;;;;5061852;28;20050;-75
2022/08/19 07:22:33;;;;;;;18.38;11.35;;;18.60;99.90;;;;;;5063585;28;20032;-76
2022/08/19 07:24:59;;;;;;;16.48;11.30;;;18.60;99.90;;;;;;5076088;28;20036;-75
2022/08/19 07:27:25;;;;;;;20.02;11.68;;;18.70;99.90;;;;;;5060301;28;20044;-76
2022/08/19 07:29:53;;;;;;;18.33;11.85;;;18.80;99.90;;;;;;5084123;28;20039;-76
2022/08/19 07:32:18;;;;;;;19.85;11.82;;;18.90;99.90;;;;;;5069738;28;20089;-75
2022/08/19 07:34:45;;;;;;;15.57;11.38;;;18.90;99.90;;;;;;5089496;28;20039;-75
2022/08/19 07:37:11;;;;;;;17.83;11.93;;;19.10;99.90;;;;;;5082200;28;20273;-75
2022/08/19 07:39:37;;;;;;;17.10;11.20;;;19.10;99.90;;;;;;5065108;28;20363;-75
2022/08/19 07:42:09;;;;;;;14.77;11.93;;;19.20;99.90;;;;;;5064395;28;20032;-76
2022/08/19 07:44:36;;;;;;;16.20;10.93;;;19.30;99.90;;;;;;5069671;28;20056;-77
2022/08/19 07:47:03;;;;;;;19.00;10.65;;;19.40;99.90;;;;;;5093380;28;20127;-76
2022/08/19 07:49:29;;;;;;;11.32;9.50;;;19.40;99.90;;;;;;5074201;28;20035;-74
2022/08/19 07:51:59;;;;;;;14.63;9.90;;;19.50;99.90;;;;;;5070120;28;20050;-73
2022/08/19 07:54:26;;;;;;;14.65;9.60;;;19.50;99.90;;;;;;5084207;28;20665;-75
2022/08/19 07:56:52;;;;;;;13.73;9.77;;;19.60;99.90;;;;;;5083690;28;20347;-75
2022/08/19 07:59:19;;;;;;;11.93;9.55;;;19.70;99.90;;;;;;5081085;28;20044;-74
2022/08/19 08:01:45;;;;;;;13.55;10.18;;;19.80;99.90;;;;;;5082153;28;20044;-75
2022/08/19 08:09:42;;;;;;;17.17;11.27;;;20.00;99.90;;;;;;5084059;27;20039;-76
2022/08/19 08:12:33;;;;;;;13.55;10.68;;;20.00;99.90;;;;;;5086414;28;20043;-76
2022/08/19 08:15:04;;;;;;;11.20;9.95;;;20.20;99.90;;;;;;5070905;28;20116;-76
2022/08/19 08:17:31;;;;;;;14.38;10.05;;;20.20;99.90;;;;;;5069272;28;20035;-76
2022/08/19 08:19:57;;;;;;;17.30;9.85;;;20.40;99.90;;;;;;5101611;27;20097;-76
2022/08/19 08:25:18;;;;;;;19.30;11.25;;;20.60;99.90;;;;;;5082231;28;20043;-75
2022/08/19 08:27:45;;;;;;;16.02;11.48;;;20.70;99.90;;;;;;5083655;28;20067;-76
2022/08/19 08:30:18;;;;;;;14.65;11.98;;;20.80;99.90;;;;;;5073133;28;20043;-76
2022/08/19 08:32:43;;;;;;;18.77;13.15;;;20.90;99.90;;;;;;5093512;28;20051;-76
2022/08/19 08:35:16;;;;;;;15.13;11.80;;;21.00;99.90;;;;;;5077526;28;20454;-75
2022/08/19 08:37:43;;;;;;;15.60;12.45;;;21.00;99.90;;;;;;5065332;28;20084;-76
2022/08/19 08:40:28;;;;;;;10.52;9.32;;;21.10;99.90;;;;;;5074370;28;20684;-75
2022/08/19 08:43:21;;;;;;;16.35;12.15;;;21.10;99.90;;;;;;5086508;28;20300;-75
2022/08/19 08:45:57;;;;;;;14.23;11.85;;;21.20;99.90;;;;;;5068148;28;20478;-75
2022/08/19 08:48:49;;;;;;;15.48;12.93;;;21.20;99.90;;;;;;5082054;28;20075;-75
2022/08/19 08:51:27;;;;;;;16.63;12.38;;;21.20;99.90;;;;;;5063651;28;20040;-76
2022/08/19 08:53:54;;;;;;;16.95;12.10;;;21.40;99.90;;;;;;5092956;28;20039;-76
2022/08/19 08:56:20;;;;;;;14.35;11.65;;;21.40;99.90;;;;;;5075176;28;20080;-74
2022/08/19 08:59:18;;;;;;;21.67;11.18;;;21.40;99.90;;;;;;5087808;28;20447;-75
2022/08/19 09:01:44;;;;;;;15.13;11.85;;;21.50;99.90;;;;;;5093003;28;20356;-75
2022/08/19 09:04:11;;;;;;;15.45;10.75;;;21.60;99.90;;;;;;5092846;28;20054;-75
2022/08/19 09:07:15;;;;;;;13.40;11.35;;;21.70;99.90;;;;;;5077491;28;20099;-74
2022/08/19 09:09:46;;;;;;;15.18;11.15;;;21.80;99.90;;;;;;5034503;28;20064;-73
2022/08/19 09:12:51;;;;;;;15.50;11.55;;;21.80;99.90;;;;;;5011380;28;20045;-75
2022/08/19 09:15:23;;;;;;;13.80;11.00;;;21.80;99.90;;;;;;4955855;28;20134;-75
2022/08/19 09:17:48;;;;;;;13.15;10.45;;;21.90;99.90;;;;;;4948824;28;20155;-74
2022/08/19 09:20:23;;;;;;;11.45;10.25;;;22.00;99.90;;;;;;4963232;28;20161;-74
2022/08/19 09:22:51;;;;;;;12.05;9.70;;;22.00;99.90;;;;;;4950970;28;20506;-74
2022/08/19 09:25:23;;;;;;;11.70;10.45;;;22.10;99.90;;;;;;4949404;28;20368;-75
2022/08/19 09:27:50;;;;;;;10.98;9.73;;;22.40;99.90;;;;;;4948992;28;20069;-75
2022/08/19 09:30:26;;;;;;;11.18;9.85;;;22.40;99.90;;;;;;4947347;28;20522;-75
2022/08/19 09:32:52;;;;;;;10.18;9.18;;;22.50;99.90;;;;;;4962395;28;20570;-75
2022/08/19 09:35:19;;;;;;;10.85;8.63;;;22.50;99.90;;;;;;4965587;28;20106;-75
2022/08/19 09:37:44;;;;;;;12.95;9.82;;;22.70;99.90;;;;;;4963822;28;20042;-75
2022/08/19 09:40:12;;;;;;;12.75;10.38;;;22.90;99.90;;;;;;4948943;28;20054;-75
2022/08/19 09:42:38;;;;;;;13.25;10.25;;;22.90;99.90;;;;;;4944186;28;20038;-75
2022/08/19 09:45:04;;;;;;;12.77;11.13;;;23.00;99.90;;;;;;4951665;28;20066;-76
2022/08/19 09:47:32;;;;;;;14.18;11.15;;;23.00;99.90;;;;;;4994952;28;20127;-75
2022/08/19 09:49:57;;;;;;;12.05;10.70;;;23.10;99.90;;;;;;5020268;28;20033;-76
2022/08/19 09:52:23;;;;;;;18.63;11.98;;;23.30;99.90;;;;;;5048279;28;20052;-74
2022/08/19 09:54:53;;;;;;;13.85;11.80;;;23.40;99.90;;;;;;5068780;28;20414;-75
2022/08/19 09:57:18;;;;;;;14.25;11.00;;;23.40;99.90;;;;;;5070247;28;20048;-75
2022/08/19 09:59:44;;;;;;;17.23;12.50;;;23.50;99.90;;;;;;5081157;28;20101;-75
2022/08/19 10:02:10;;;;;;;15.90;11.10;;;23.60;99.90;;;;;;5088287;28;20142;-75
2022/08/19 10:07:21;;;;;;;14.00;11.23;;;24.00;99.90;;;;;;5083827;28;20106;-75
2022/08/19 10:09:47;;;;;;;13.95;10.20;;;24.00;99.90;;;;;;5081403;28;20054;-76
2022/08/19 10:12:15;;;;;;;11.55;10.10;;;24.00;99.90;;;;;;5081278;28;20471;-77
2022/08/19 10:14:40;;;;;;;12.65;11.40;;;24.10;99.90;;;;;;5080921;28;20478;-76
2022/08/19 10:17:06;;;;;;;15.32;10.07;;;24.20;99.90;;;;;;5079404;28;20031;-75
2022/08/19 10:19:35;;;;;;;15.27;9.93;;;24.30;99.90;;;;;;5056859;28;20101;-75
2022/08/19 10:22:07;;;;;;;13.40;10.50;;;24.50;99.90;;;;;;5075938;28;20047;-75
2022/08/19 10:24:34;;;;;;;13.52;12.13;;;24.80;99.90;;;;;;5081332;28;20063;-77
2022/08/19 10:27:03;;;;;;;18.23;12.73;;;24.80;99.90;;;;;;5076437;28;20032;-73
2022/08/19 10:29:30;;;;;;;12.55;10.57;;;24.70;99.90;;;;;;5083088;28;20165;-73
2022/08/19 10:31:57;;;;;;;11.57;10.20;;;24.90;99.90;;;;;;5073355;28;20114;-76
2022/08/19 10:34:23;;;;;;;13.05;11.65;;;24.90;99.90;;;;;;5079454;28;20048;-74
2022/08/19 10:36:49;;;;;;;14.93;11.57;;;24.90;99.90;;;;;;5061202;28;20067;-77
2022/08/19 10:39:15;;;;;;;14.85;11.40;;;25.10;99.90;;;;;;5058092;28;20064;-76
2022/08/19 10:41:43;;;;;;;15.35;11.35;;;25.30;99.90;;;;;;5081034;28;20040;-76
2022/08/19 10:44:11;;;;;;;11.98;10.77;;;25.20;99.90;;;;;;5081226;28;20107;-76
2022/08/19 10:46:42;;;;;;;13.05;10.32;;;25.30;99.90;;;;;;5090921;28;20047;-75
2022/08/19 10:49:10;;;;;;;10.55;9.40;;;25.70;99.90;;;;;;5092794;28;20047;-76
2022/08/19 10:54:22;;;;;;;13.35;11.70;;;25.90;99.90;;;;;;5072636;28;20475;-75
2022/08/19 10:56:54;;;;;;;12.40;10.77;;;25.90;99.90;;;;;;5083024;28;20036;-75
2022/08/19 10:59:29;;;;;;;12.57;10.45;;;26.10;99.90;;;;;;5077063;28;20062;-74
2022/08/19 11:01:59;;;;;;;16.33;11.45;;;26.30;99.90;;;;;;5080703;28;20071;-73
2022/08/19 11:04:25;;;;;;;16.45;11.07;;;26.50;99.90;;;;;;5075426;28;20043;-73
2022/08/19 11:06:51;;;;;;;12.73;11.43;;;26.80;99.90;;;;;;5077717;28;20055;-74
2022/08/19 11:09:20;;;;;;;14.13;11.10;;;26.90;99.90;;;;;;5076991;28;20093;-73
2022/08/19 11:11:47;;;;;;;13.07;10.70;;;26.90;99.90;;;;;;5080143;28;20047;-74
2022/08/19 11:14:18;;;;;;;11.75;9.15;;;27.00;99.90;;;;;;5079266;28;20052;-73
2022/08/19 11:16:44;;;;;;;51.58;12.60;;;26.90;99.90;;;;;;5081388;28;20525;-74
2022/08/19 11:19:11;;;;;;;10.10;8.13;;;26.80;99.90;;;;;;5075425;28;20430;-73
2022/08/19 11:21:40;;;;;;;13.52;10.57;;;27.20;99.90;;;;;;5079404;28;20451;-74
2022/08/19 11:24:13;;;;;;;14.52;11.55;;;27.40;99.90;;;;;;5075541;28;20494;-74
2022/08/19 11:26:40;;;;;;;12.43;9.20;;;27.70;99.90;;;;;;5081664;28;20039;-74
2022/08/19 11:29:11;;;;;;;12.65;10.52;;;28.10;99.90;;;;;;5080115;28;20089;-74
2022/08/19 11:31:38;;;;;;;13.88;8.68;;;28.40;99.90;;;;;;5097375;28;20096;-74
2022/08/19 11:34:06;;;;;;;15.45;8.95;;;28.60;99.90;;;;;;5065368;28;20459;-74
2022/08/19 11:36:32;;;;;;;10.40;8.48;;;28.40;99.90;;;;;;5086888;28;20379;-74
2022/08/19 11:38:58;;;;;;;10.35;8.30;;;28.00;99.90;;;;;;5082522;28;20024;-74
2022/08/19 11:41:28;;;;;;;9.38;8.38;;;27.70;99.90;;;;;;5085875;28;20719;-73
2022/08/19 11:43:55;;;;;;;15.68;9.93;;;27.70;99.90;;;;;;5064966;28;20048;-74
2022/08/19 11:46:22;;;;;;;12.07;9.77;;;27.50;99.90;;;;;;5067953;28;20483;-73
2022/08/19 11:48:49;;;;;;;12.80;9.65;;;27.20;99.90;;;;;;5078570;28;20040;-73
2022/08/19 11:51:18;;;;;;;12.77;11.48;;;27.30;99.90;;;;;;5078747;28;20039;-74
2022/08/19 11:53:45;;;;;;;17.08;10.90;;;27.00;99.90;;;;;;5062901;28;20056;-75
2022/08/19 11:56:11;;;;;;;11.45;10.07;;;27.30;99.90;;;;;;5078347;28;20128;-75
2022/08/19 11:58:37;;;;;;;11.57;9.27;;;27.00;99.90;;;;;;5081043;28;20036;-75
2022/08/19 12:01:08;;;;;;;9.15;7.55;;;27.20;99.90;;;;;;5100841;27;20108;-74
2022/08/19 12:03:34;;;;;;;7.68;6.07;;;27.40;99.90;;;;;;5080345;28;20032;-75
2022/08/19 12:06:05;;;;;;;8.55;6.80;;;27.60;99.90;;;;;;5061148;28;20044;-74
2022/08/19 12:08:31;;;;;;;8.63;6.57;;;27.70;99.90;;;;;;5080675;28;20044;-74
2022/08/19 12:11:01;;;;;;;14.02;7.85;;;27.80;99.90;;;;;;5062946;28;20074;-74
2022/08/19 12:13:33;;;;;;;11.00;7.30;;;27.80;99.90;;;;;;5052627;28;20234;-74
2022/08/19 12:15:59;;;;;;;10.43;7.22;;;27.60;99.90;;;;;;5064016;28;20072;-73
2022/08/19 12:18:27;;;;;;;15.63;9.30;;;27.70;99.90;;;;;;5069127;28;20088;-73
2022/08/19 12:20:57;;;;;;;10.82;7.72;;;27.70;99.90;;;;;;5084171;28;20058;-74
2022/08/19 12:23:23;;;;;;;9.52;6.88;;;27.70;99.90;;;;;;5080932;28;20411;-73
2022/08/19 12:25:52;;;;;;;13.25;7.85;;;27.90;99.90;;;;;;5066958;28;20063;-74
2022/08/19 12:28:23;;;;;;;10.30;7.22;;;27.80;99.90;;;;;;5085244;28;20055;-75
2022/08/19 12:30:52;;;;;;;8.65;6.45;;;28.00;99.90;;;;;;5076851;28;20376;-74
2022/08/19 12:33:23;;;;;;;10.02;6.78;;;28.30;99.90;;;;;;5090681;28;20044;-74
2022/08/19 12:35:49;;;;;;;11.13;7.90;;;28.50;99.90;;;;;;5091489;28;20071;-73
2022/08/19 12:38:14;;;;;;;11.23;6.38;;;28.70;99.90;;;;;;5058968;28;20084;-73
2022/08/19 12:40:41;;;;;;;8.70;5.80;;;28.80;99.90;;;;;;5085071;28;20047;-76
2022/08/19 12:43:08;;;;;;;5.70;5.20;;;28.70;99.90;;;;;;5082692;28;20047;-74
2022/08/19 12:45:34;;;;;;;7.57;5.85;;;28.70;99.90;;;;;;5079866;28;20036;-74
2022/08/19 12:47:59;;;;;;;8.77;6.43;;;28.50;99.90;;;;;;5082747;28;20390;-75
2022/08/19 12:50:25;;;;;;;15.85;7.03;;;28.40;99.90;;;;;;5063248;28;20082;-75
2022/08/19 12:52:51;;;;;;;11.50;7.03;;;28.20;99.90;;;;;;5060147;28;20373;-75
2022/08/19 12:55:18;;;;;;;11.10;7.25;;;28.00;99.90;;;;;;5080260;28;20037;-73
2022/08/19 12:57:44;;;;;;;7.53;6.57;;;27.80;99.90;;;;;;5061180;28;20067;-75
2022/08/19 13:00:13;;;;;;;9.32;6.70;;;27.70;99.90;;;;;;5065090;28;20410;-74
2022/08/19 13:02:43;;;;;;;13.68;7.35;;;27.50;99.90;;;;;;5082321;28;20036;-74
2022/08/19 13:05:11;;;;;;;8.77;7.85;;;27.40;99.90;;;;;;5086206;28;20044;-74